Toowoomba, Queensland

1:57 AM AEST on September 03, 2015 (GMT +1000)
Newtown | | Change Station
CLOSE
Current Station
Personal Weather Station
Location: Toowoomba, QUEENSLAND
Elevation: 1919 ft
Nearby Weather Stations

Elev 1919 ft 27.54 °S, 151.94 °E | Updated 52 seconds ago

Scattered Clouds
Scattered Clouds
57.2 °F
Feels Like 57.2 °F
N
0.0
Wind Variable Wind from North
Gusts 0.6 mph

Today
High -- | Low -- °F
--% Chance of Precip.
Yesterday
High -- | Low -- °F
Precip. -- in
6:04 AM 5:39 PM
Waning Gibbous, 79% visible
Pressure 29.95 in
Visibility 6.2 miles
Clouds Scattered Clouds 4500 ft
Scattered Clouds 6700 ft
Scattered Clouds 10000 ft
Dew Point 56 °F
Humidity 97%
Rainfall 0.00 in
Snow Depth Not available.
UV 0 out of 12
Pollen Not available.
Air Quality Not available.
Flu Activity Not available.
METAR YBOK 021500Z AUTO 05011KT 9999 // SCT045 SCT067 SCT100 14/13 Q1014
Pressure 29.95 in
Visibility 6.2 miles
Clouds Scattered Clouds 4500 ft
Scattered Clouds 6700 ft
Scattered Clouds 10000 ft
Dew Point 56 °F
Humidity 97%
Rainfall 0.00 in
Snow Depth Not available.
UV 0 out of 12
Pollen Not available.
Air Quality Not available.
Flu Activity Not available.
METAR YBOK 021500Z AUTO 05011KT 9999 // SCT045 SCT067 SCT100 14/13 Q1014

10-Day Weather Forecast

×

Almanac

Astronomy

Sep. 03, 2015 Rise Set
Actual Time
Civil Twilight
Nautical Twilight
Astronomical Twilight
Moon
Length of Visible Light
Length of Day
Tomorrow will be .
, % of the Moon is Illuminated

Today's Extremes

Country Highs Country Lows

Community

WunderPhotos

Upload Photos

1,851,774 photos uploaded!

WunderBlogs® & News

Nearby

Air Quality

  Air Quality AQ Index Pollutant
Not available.

Snow Depth

Station Depth Elevation

Earthquake Activity

City Distance Mag. Time & Date
Minimum magnitude displayed is 2.5.

Coastal Water Temperatures

Place Temperature

Stations

Nearby Weather Stations

Station Location Temp. Windchill Dew Point Humidity Wind Precip. Elev Updated Type